Cullen, United Kingdom
Current Conditions -  °F | °C
As of 5:50 AM on Wednesday 26 Nov 2014 (Local Time) from EGQS Reporting Station
Clear Clear  
Wind Chill: 32°   Ceiling: Unl
Heat Index: 32°   Visibility: 6mi
Dew Point: 30°   Wind: 1mph
Humidity: 93%   Direction: 270°W
Pressure: 30"   Gusts: NA
Location:  57.69°N, 2.82°W
Report Text: EGQS 260550Z 27001KT CAVOK M00/M01 Q1016 BLU NOSIG
Loading
Personal Weather Stations






























Interactive Weather Map New forecast layout! Learn more

10-Day Weather Forecast

Advertisements
Track Severe Weather on mobile